sensor_id;sensor_type;location;lat;lon;timestamp;P1;durP1;ratioP1;P2;durP2;ratioP2
32705;SDS011;19094;50.972;3.538;2023-02-11T00:00:11;17.65;;;5.38;;
32705;SDS011;19094;50.972;3.538;2023-02-11T00:02:37;22.02;;;5.38;;
32705;SDS011;19094;50.972;3.538;2023-02-11T00:05:03;17.80;;;5.75;;
32705;SDS011;19094;50.972;3.538;2023-02-11T00:07:30;19.75;;;5.18;;
32705;SDS011;19094;50.972;3.538;2023-02-11T00:09:56;20.88;;;5.55;;
32705;SDS011;19094;50.972;3.538;2023-02-11T00:12:22;24.05;;;5.97;;
32705;SDS011;19094;50.972;3.538;2023-02-11T00:14:48;30.20;;;5.93;;
32705;SDS011;19094;50.972;3.538;2023-02-11T00:17:13;20.88;;;5.78;;
32705;SDS011;19094;50.972;3.538;2023-02-11T00:19:39;16.17;;;5.13;;
32705;SDS011;19094;50.972;3.538;2023-02-11T00:22:05;26.65;;;6.15;;
32705;SDS011;19094;50.972;3.538;2023-02-11T00:24:31;16.05;;;5.78;;
32705;SDS011;19094;50.972;3.538;2023-02-11T00:26:57;24.05;;;5.90;;
32705;SDS011;19094;50.972;3.538;2023-02-11T00:29:22;20.67;;;6.00;;
32705;SDS011;19094;50.972;3.538;2023-02-11T00:31:48;25.17;;;5.57;;
32705;SDS011;19094;50.972;3.538;2023-02-11T00:34:14;20.45;;;6.45;;
32705;SDS011;19094;50.972;3.538;2023-02-11T00:36:40;21.05;;;5.75;;
32705;SDS011;19094;50.972;3.538;2023-02-11T00:39:06;14.27;;;5.05;;
32705;SDS011;19094;50.972;3.538;2023-02-11T00:41:32;18.17;;;5.80;;
32705;SDS011;19094;50.972;3.538;2023-02-11T00:43:59;19.60;;;6.18;;
32705;SDS011;19094;50.972;3.538;2023-02-11T00:46:25;23.35;;;6.53;;
32705;SDS011;19094;50.972;3.538;2023-02-11T00:48:51;17.02;;;5.50;;
32705;SDS011;19094;50.972;3.538;2023-02-11T00:51:21;24.98;;;6.65;;
32705;SDS011;19094;50.972;3.538;2023-02-11T00:53:50;14.95;;;6.07;;
32705;SDS011;19094;50.972;3.538;2023-02-11T00:56:16;20.13;;;5.90;;
32705;SDS011;19094;50.972;3.538;2023-02-11T00:58:42;19.90;;;6.32;;
32705;SDS011;19094;50.972;3.538;2023-02-11T01:01:07;19.05;;;7.40;;
32705;SDS011;19094;50.972;3.538;2023-02-11T01:03:34;18.80;;;6.95;;
32705;SDS011;19094;50.972;3.538;2023-02-11T01:05:59;16.80;;;6.35;;
32705;SDS011;19094;50.972;3.538;2023-02-11T01:08:26;13.07;;;5.78;;
32705;SDS011;19094;50.972;3.538;2023-02-11T01:10:55;20.55;;;6.53;;
32705;SDS011;19094;50.972;3.538;2023-02-11T01:13:22;14.68;;;6.03;;
32705;SDS011;19094;50.972;3.538;2023-02-11T01:15:49;23.10;;;7.30;;
32705;SDS011;19094;50.972;3.538;2023-02-11T01:18:15;25.17;;;6.82;;
32705;SDS011;19094;50.972;3.538;2023-02-11T01:20:40;22.40;;;7.13;;
32705;SDS011;19094;50.972;3.538;2023-02-11T01:23:06;22.88;;;6.60;;
32705;SDS011;19094;50.972;3.538;2023-02-11T01:25:32;19.05;;;6.68;;
32705;SDS011;19094;50.972;3.538;2023-02-11T01:27:57;19.45;;;6.25;;
32705;SDS011;19094;50.972;3.538;2023-02-11T01:30:23;18.20;;;6.78;;
32705;SDS011;19094;50.972;3.538;2023-02-11T01:32:49;18.80;;;6.50;;
32705;SDS011;19094;50.972;3.538;2023-02-11T01:35:14;26.88;;;7.00;;
32705;SDS011;19094;50.972;3.538;2023-02-11T01:37:40;25.65;;;6.63;;
32705;SDS011;19094;50.972;3.538;2023-02-11T01:40:07;22.48;;;7.22;;
32705;SDS011;19094;50.972;3.538;2023-02-11T01:42:39;20.02;;;7.10;;
32705;SDS011;19094;50.972;3.538;2023-02-11T01:48:08;17.30;;;7.18;;
32705;SDS011;19094;50.972;3.538;2023-02-11T01:50:42;23.98;;;7.70;;
32705;SDS011;19094;50.972;3.538;2023-02-11T01:53:11;14.63;;;6.70;;
32705;SDS011;19094;50.972;3.538;2023-02-11T01:55:55;27.85;;;7.90;;
32705;SDS011;19094;50.972;3.538;2023-02-11T01:58:41;24.58;;;7.93;;
32705;SDS011;19094;50.972;3.538;2023-02-11T02:01:10;23.05;;;7.70;;
32705;SDS011;19094;50.972;3.538;2023-02-11T02:03:40;23.90;;;7.88;;
32705;SDS011;19094;50.972;3.538;2023-02-11T02:06:09;23.02;;;8.23;;
32705;SDS011;19094;50.972;3.538;2023-02-11T02:08:51;24.65;;;8.98;;
32705;SDS011;19094;50.972;3.538;2023-02-11T02:11:19;26.25;;;8.77;;
32705;SDS011;19094;50.972;3.538;2023-02-11T02:13:45;24.65;;;9.23;;
32705;SDS011;19094;50.972;3.538;2023-02-11T02:16:11;26.35;;;8.90;;
32705;SDS011;19094;50.972;3.538;2023-02-11T02:35:47;32.90;;;9.98;;
32705;SDS011;19094;50.972;3.538;2023-02-11T02:38:23;21.80;;;9.48;;
32705;SDS011;19094;50.972;3.538;2023-02-11T02:41:02;32.88;;;10.43;;
32705;SDS011;19094;50.972;3.538;2023-02-11T02:43:33;26.83;;;10.32;;
32705;SDS011;19094;50.972;3.538;2023-02-11T02:48:53;25.50;;;9.82;;
32705;SDS011;19094;50.972;3.538;2023-02-11T02:51:30;19.88;;;8.80;;
32705;SDS011;19094;50.972;3.538;2023-02-11T02:56:54;20.65;;;8.70;;
32705;SDS011;19094;50.972;3.538;2023-02-11T03:02:17;19.75;;;8.68;;
32705;SDS011;19094;50.972;3.538;2023-02-11T03:07:51;18.67;;;8.97;;
32705;SDS011;19094;50.972;3.538;2023-02-11T03:10:34;25.98;;;9.20;;
32705;SDS011;19094;50.972;3.538;2023-02-11T03:13:12;18.85;;;8.90;;
32705;SDS011;19094;50.972;3.538;2023-02-11T03:15:43;24.27;;;9.20;;
32705;SDS011;19094;50.972;3.538;2023-02-11T03:18:12;25.48;;;9.18;;
32705;SDS011;19094;50.972;3.538;2023-02-11T03:20:41;27.20;;;10.65;;
32705;SDS011;19094;50.972;3.538;2023-02-11T03:25:37;22.00;;;9.55;;
32705;SDS011;19094;50.972;3.538;2023-02-11T03:33:56;22.15;;;9.50;;
32705;SDS011;19094;50.972;3.538;2023-02-11T03:36:47;29.13;;;9.45;;
32705;SDS011;19094;50.972;3.538;2023-02-11T03:39:46;19.20;;;8.70;;
32705;SDS011;19094;50.972;3.538;2023-02-11T03:42:20;28.50;;;9.32;;
32705;SDS011;19094;50.972;3.538;2023-02-11T03:44:50;25.80;;;9.48;;
32705;SDS011;19094;50.972;3.538;2023-02-11T03:47:22;24.20;;;8.98;;
32705;SDS011;19094;50.972;3.538;2023-02-11T03:49:50;25.65;;;9.20;;
32705;SDS011;19094;50.972;3.538;2023-02-11T03:52:19;22.95;;;9.00;;
32705;SDS011;19094;50.972;3.538;2023-02-11T03:54:48;19.77;;;8.77;;
32705;SDS011;19094;50.972;3.538;2023-02-11T03:57:17;23.80;;;8.73;;
32705;SDS011;19094;50.972;3.538;2023-02-11T03:59:53;34.00;;;9.52;;
32705;SDS011;19094;50.972;3.538;2023-02-11T04:02:24;22.60;;;9.90;;
32705;SDS011;19094;50.972;3.538;2023-02-11T04:04:55;20.00;;;8.98;;
32705;SDS011;19094;50.972;3.538;2023-02-11T04:07:21;25.25;;;9.43;;
32705;SDS011;19094;50.972;3.538;2023-02-11T04:09:47;20.58;;;10.07;;
32705;SDS011;19094;50.972;3.538;2023-02-11T04:12:13;29.67;;;9.65;;
32705;SDS011;19094;50.972;3.538;2023-02-11T04:14:39;23.23;;;10.00;;
32705;SDS011;19094;50.972;3.538;2023-02-11T04:17:04;28.95;;;10.07;;
32705;SDS011;19094;50.972;3.538;2023-02-11T04:19:30;28.35;;;10.13;;
32705;SDS011;19094;50.972;3.538;2023-02-11T04:21:56;24.80;;;9.75;;
32705;SDS011;19094;50.972;3.538;2023-02-11T04:24:22;26.67;;;8.85;;
32705;SDS011;19094;50.972;3.538;2023-02-11T04:26:48;22.77;;;9.60;;
32705;SDS011;19094;50.972;3.538;2023-02-11T04:29:14;21.63;;;9.55;;
32705;SDS011;19094;50.972;3.538;2023-02-11T04:31:39;22.88;;;10.07;;
32705;SDS011;19094;50.972;3.538;2023-02-11T04:34:05;22.23;;;10.23;;
32705;SDS011;19094;50.972;3.538;2023-02-11T04:36:30;25.13;;;10.27;;
32705;SDS011;19094;50.972;3.538;2023-02-11T04:38:56;25.02;;;9.32;;
32705;SDS011;19094;50.972;3.538;2023-02-11T04:41:22;19.02;;;10.13;;
32705;SDS011;19094;50.972;3.538;2023-02-11T04:43:47;25.35;;;9.07;;
32705;SDS011;19094;50.972;3.538;2023-02-11T04:46:13;32.33;;;10.35;;
32705;SDS011;19094;50.972;3.538;2023-02-11T04:48:38;23.58;;;9.98;;
32705;SDS011;19094;50.972;3.538;2023-02-11T04:51:04;23.02;;;9.65;;
32705;SDS011;19094;50.972;3.538;2023-02-11T04:53:30;20.95;;;8.43;;
32705;SDS011;19094;50.972;3.538;2023-02-11T04:55:56;22.00;;;9.65;;
32705;SDS011;19094;50.972;3.538;2023-02-11T04:58:21;24.25;;;9.63;;
32705;SDS011;19094;50.972;3.538;2023-02-11T05:00:48;23.08;;;10.15;;
32705;SDS011;19094;50.972;3.538;2023-02-11T05:03:14;25.17;;;9.82;;
32705;SDS011;19094;50.972;3.538;2023-02-11T05:05:40;22.00;;;9.88;;
32705;SDS011;19094;50.972;3.538;2023-02-11T05:08:07;33.03;;;9.90;;
32705;SDS011;19094;50.972;3.538;2023-02-11T05:10:33;27.48;;;10.00;;
32705;SDS011;19094;50.972;3.538;2023-02-11T05:12:59;24.35;;;10.63;;
32705;SDS011;19094;50.972;3.538;2023-02-11T05:15:25;25.13;;;11.05;;
32705;SDS011;19094;50.972;3.538;2023-02-11T05:17:51;24.55;;;11.23;;
32705;SDS011;19094;50.972;3.538;2023-02-11T05:20:17;28.45;;;12.02;;
32705;SDS011;19094;50.972;3.538;2023-02-11T05:22:42;29.02;;;11.60;;
32705;SDS011;19094;50.972;3.538;2023-02-11T05:25:08;25.92;;;11.93;;
32705;SDS011;19094;50.972;3.538;2023-02-11T05:27:34;29.80;;;11.02;;
32705;SDS011;19094;50.972;3.538;2023-02-11T05:30:00;21.55;;;10.82;;
32705;SDS011;19094;50.972;3.538;2023-02-11T05:32:25;19.70;;;10.15;;
32705;SDS011;19094;50.972;3.538;2023-02-11T05:34:51;29.38;;;10.23;;
32705;SDS011;19094;50.972;3.538;2023-02-11T05:37:17;30.63;;;11.10;;
32705;SDS011;19094;50.972;3.538;2023-02-11T05:39:42;34.60;;;12.80;;
32705;SDS011;19094;50.972;3.538;2023-02-11T05:42:08;24.27;;;11.52;;
32705;SDS011;19094;50.972;3.538;2023-02-11T05:44:34;24.52;;;10.68;;
32705;SDS011;19094;50.972;3.538;2023-02-11T05:47:00;30.08;;;11.45;;
32705;SDS011;19094;50.972;3.538;2023-02-11T05:49:25;26.35;;;11.20;;
32705;SDS011;19094;50.972;3.538;2023-02-11T05:51:52;26.30;;;11.02;;
32705;SDS011;19094;50.972;3.538;2023-02-11T05:54:18;26.10;;;11.00;;
32705;SDS011;19094;50.972;3.538;2023-02-11T05:56:43;29.38;;;10.38;;
32705;SDS011;19094;50.972;3.538;2023-02-11T05:59:11;25.45;;;10.85;;
32705;SDS011;19094;50.972;3.538;2023-02-11T06:01:38;29.55;;;10.73;;
32705;SDS011;19094;50.972;3.538;2023-02-11T06:04:03;27.55;;;10.57;;
32705;SDS011;19094;50.972;3.538;2023-02-11T06:06:29;28.70;;;10.80;;
32705;SDS011;19094;50.972;3.538;2023-02-11T06:08:55;29.75;;;10.35;;
32705;SDS011;19094;50.972;3.538;2023-02-11T06:11:21;23.27;;;10.82;;
32705;SDS011;19094;50.972;3.538;2023-02-11T06:13:47;29.58;;;11.15;;
32705;SDS011;19094;50.972;3.538;2023-02-11T06:16:12;25.77;;;10.63;;
32705;SDS011;19094;50.972;3.538;2023-02-11T06:18:38;27.30;;;12.10;;
32705;SDS011;19094;50.972;3.538;2023-02-11T06:21:07;24.10;;;12.10;;
32705;SDS011;19094;50.972;3.538;2023-02-11T06:23:34;34.55;;;12.63;;
32705;SDS011;19094;50.972;3.538;2023-02-11T06:26:02;26.52;;;12.07;;
32705;SDS011;19094;50.972;3.538;2023-02-11T06:28:29;33.55;;;12.75;;
32705;SDS011;19094;50.972;3.538;2023-02-11T06:30:58;31.02;;;14.57;;
32705;SDS011;19094;50.972;3.538;2023-02-11T06:33:30;33.92;;;13.07;;
32705;SDS011;19094;50.972;3.538;2023-02-11T06:35:56;29.23;;;12.85;;
32705;SDS011;19094;50.972;3.538;2023-02-11T06:38:21;32.05;;;13.57;;
32705;SDS011;19094;50.972;3.538;2023-02-11T06:40:47;29.23;;;12.07;;
32705;SDS011;19094;50.972;3.538;2023-02-11T06:43:13;29.35;;;13.60;;
32705;SDS011;19094;50.972;3.538;2023-02-11T06:45:40;24.63;;;12.02;;
32705;SDS011;19094;50.972;3.538;2023-02-11T06:48:05;26.85;;;12.85;;
32705;SDS011;19094;50.972;3.538;2023-02-11T06:50:31;27.23;;;12.63;;
32705;SDS011;19094;50.972;3.538;2023-02-11T06:53:00;34.88;;;13.85;;
32705;SDS011;19094;50.972;3.538;2023-02-11T06:55:26;32.13;;;14.10;;
32705;SDS011;19094;50.972;3.538;2023-02-11T06:57:55;30.13;;;13.43;;
32705;SDS011;19094;50.972;3.538;2023-02-11T07:00:20;32.22;;;13.38;;
32705;SDS011;19094;50.972;3.538;2023-02-11T07:02:46;36.13;;;14.25;;
32705;SDS011;19094;50.972;3.538;2023-02-11T07:05:12;34.30;;;14.55;;
32705;SDS011;19094;50.972;3.538;2023-02-11T07:07:37;33.90;;;15.13;;
32705;SDS011;19094;50.972;3.538;2023-02-11T07:10:03;35.90;;;14.30;;
32705;SDS011;19094;50.972;3.538;2023-02-11T07:12:30;41.17;;;15.65;;
32705;SDS011;19094;50.972;3.538;2023-02-11T07:14:56;42.15;;;15.50;;
32705;SDS011;19094;50.972;3.538;2023-02-11T07:17:22;37.15;;;15.45;;
32705;SDS011;19094;50.972;3.538;2023-02-11T07:19:48;38.08;;;16.63;;
32705;SDS011;19094;50.972;3.538;2023-02-11T07:22:13;38.22;;;16.50;;
32705;SDS011;19094;50.972;3.538;2023-02-11T07:24:39;39.70;;;17.27;;
32705;SDS011;19094;50.972;3.538;2023-02-11T07:27:05;45.83;;;19.15;;
32705;SDS011;19094;50.972;3.538;2023-02-11T07:29:30;48.03;;;21.15;;
32705;SDS011;19094;50.972;3.538;2023-02-11T07:31:57;41.55;;;19.63;;
32705;SDS011;19094;50.972;3.538;2023-02-11T07:34:22;46.53;;;19.40;;
32705;SDS011;19094;50.972;3.538;2023-02-11T07:36:48;39.22;;;19.65;;
32705;SDS011;19094;50.972;3.538;2023-02-11T07:39:14;45.53;;;20.50;;
32705;SDS011;19094;50.972;3.538;2023-02-11T07:41:40;42.17;;;20.25;;
32705;SDS011;19094;50.972;3.538;2023-02-11T07:44:06;45.25;;;22.85;;
32705;SDS011;19094;50.972;3.538;2023-02-11T07:46:32;45.88;;;22.88;;
32705;SDS011;19094;50.972;3.538;2023-02-11T07:48:59;51.47;;;20.88;;
32705;SDS011;19094;50.972;3.538;2023-02-11T07:51:26;45.53;;;20.45;;
32705;SDS011;19094;50.972;3.538;2023-02-11T07:53:53;44.65;;;20.42;;
32705;SDS011;19094;50.972;3.538;2023-02-11T07:56:20;46.30;;;18.60;;
32705;SDS011;19094;50.972;3.538;2023-02-11T07:58:46;42.55;;;19.23;;
32705;SDS011;19094;50.972;3.538;2023-02-11T08:01:15;51.67;;;19.85;;
32705;SDS011;19094;50.972;3.538;2023-02-11T08:03:42;41.97;;;19.73;;
32705;SDS011;19094;50.972;3.538;2023-02-11T08:06:13;48.15;;;20.40;;
32705;SDS011;19094;50.972;3.538;2023-02-11T08:08:40;45.22;;;20.00;;
32705;SDS011;19094;50.972;3.538;2023-02-11T08:11:07;45.00;;;19.20;;
32705;SDS011;19094;50.972;3.538;2023-02-11T08:13:34;42.95;;;20.20;;
32705;SDS011;19094;50.972;3.538;2023-02-11T08:16:01;41.28;;;18.95;;
32705;SDS011;19094;50.972;3.538;2023-02-11T08:18:27;46.55;;;20.27;;
32705;SDS011;19094;50.972;3.538;2023-02-11T08:20:54;41.70;;;19.58;;
32705;SDS011;19094;50.972;3.538;2023-02-11T08:23:19;52.28;;;20.60;;
32705;SDS011;19094;50.972;3.538;2023-02-11T08:25:45;41.83;;;19.83;;
32705;SDS011;19094;50.972;3.538;2023-02-11T08:28:10;49.35;;;21.60;;
32705;SDS011;19094;50.972;3.538;2023-02-11T08:30:36;43.13;;;20.27;;
32705;SDS011;19094;50.972;3.538;2023-02-11T08:33:02;47.17;;;20.23;;
32705;SDS011;19094;50.972;3.538;2023-02-11T08:35:27;41.58;;;20.02;;
32705;SDS011;19094;50.972;3.538;2023-02-11T08:37:53;46.35;;;20.42;;
32705;SDS011;19094;50.972;3.538;2023-02-11T08:40:19;46.47;;;21.52;;
32705;SDS011;19094;50.972;3.538;2023-02-11T08:42:45;42.13;;;20.92;;
32705;SDS011;19094;50.972;3.538;2023-02-11T08:45:10;49.30;;;20.92;;
32705;SDS011;19094;50.972;3.538;2023-02-11T08:47:39;45.13;;;21.33;;
32705;SDS011;19094;50.972;3.538;2023-02-11T08:50:05;42.22;;;21.42;;
32705;SDS011;19094;50.972;3.538;2023-02-11T08:52:31;45.22;;;22.05;;
32705;SDS011;19094;50.972;3.538;2023-02-11T08:54:56;50.85;;;23.35;;
32705;SDS011;19094;50.972;3.538;2023-02-11T08:57:22;52.15;;;23.52;;
32705;SDS011;19094;50.972;3.538;2023-02-11T08:59:48;56.55;;;25.38;;
32705;SDS011;19094;50.972;3.538;2023-02-11T09:02:14;51.25;;;23.98;;
32705;SDS011;19094;50.972;3.538;2023-02-11T09:04:39;60.30;;;24.52;;
32705;SDS011;19094;50.972;3.538;2023-02-11T09:07:05;54.45;;;25.15;;
32705;SDS011;19094;50.972;3.538;2023-02-11T09:09:31;61.20;;;25.42;;
32705;SDS011;19094;50.972;3.538;2023-02-11T09:11:57;58.60;;;24.60;;
32705;SDS011;19094;50.972;3.538;2023-02-11T09:14:25;59.80;;;25.80;;
32705;SDS011;19094;50.972;3.538;2023-02-11T09:16:51;60.63;;;25.95;;
32705;SDS011;19094;50.972;3.538;2023-02-11T09:19:17;63.08;;;25.83;;
32705;SDS011;19094;50.972;3.538;2023-02-11T09:21:44;55.08;;;25.25;;
32705;SDS011;19094;50.972;3.538;2023-02-11T09:24:10;53.95;;;24.13;;
32705;SDS011;19094;50.972;3.538;2023-02-11T09:26:36;57.05;;;25.38;;
32705;SDS011;19094;50.972;3.538;2023-02-11T09:29:02;59.78;;;25.63;;
32705;SDS011;19094;50.972;3.538;2023-02-11T09:31:29;61.70;;;26.67;;
32705;SDS011;19094;50.972;3.538;2023-02-11T09:33:57;59.55;;;25.60;;
32705;SDS011;19094;50.972;3.538;2023-02-11T09:36:28;59.03;;;26.33;;
32705;SDS011;19094;50.972;3.538;2023-02-11T09:38:56;59.00;;;25.13;;
32705;SDS011;19094;50.972;3.538;2023-02-11T09:43:51;56.15;;;25.90;;
32705;SDS011;19094;50.972;3.538;2023-02-11T09:46:19;61.58;;;26.48;;
32705;SDS011;19094;50.972;3.538;2023-02-11T09:48:47;54.70;;;24.70;;
32705;SDS011;19094;50.972;3.538;2023-02-11T09:51:16;58.22;;;25.45;;
32705;SDS011;19094;50.972;3.538;2023-02-11T09:53:48;49.97;;;22.98;;
32705;SDS011;19094;50.972;3.538;2023-02-11T09:56:20;60.85;;;24.02;;
32705;SDS011;19094;50.972;3.538;2023-02-11T09:58:46;61.58;;;26.38;;
32705;SDS011;19094;50.972;3.538;2023-02-11T10:01:15;48.78;;;22.55;;
32705;SDS011;19094;50.972;3.538;2023-02-11T10:04:03;46.85;;;23.40;;
32705;SDS011;19094;50.972;3.538;2023-02-11T10:06:38;54.75;;;23.85;;
32705;SDS011;19094;50.972;3.538;2023-02-11T10:12:14;52.90;;;22.70;;
32705;SDS011;19094;50.972;3.538;2023-02-11T10:20:35;48.72;;;23.00;;
32705;SDS011;19094;50.972;3.538;2023-02-11T10:23:14;49.60;;;21.58;;
32705;SDS011;19094;50.972;3.538;2023-02-11T10:25:48;48.20;;;24.42;;
32705;SDS011;19094;50.972;3.538;2023-02-11T10:28:22;52.13;;;23.60;;
32705;SDS011;19094;50.972;3.538;2023-02-11T10:33:30;45.28;;;22.83;;
32705;SDS011;19094;50.972;3.538;2023-02-11T10:35:58;49.88;;;23.42;;
32705;SDS011;19094;50.972;3.538;2023-02-11T10:38:24;53.13;;;22.10;;
32705;SDS011;19094;50.972;3.538;2023-02-11T10:40:51;50.80;;;21.33;;
32705;SDS011;19094;50.972;3.538;2023-02-11T10:43:18;46.08;;;21.52;;
32705;SDS011;19094;50.972;3.538;2023-02-11T10:45:52;44.05;;;20.27;;
32705;SDS011;19094;50.972;3.538;2023-02-11T10:48:39;47.40;;;19.70;;
32705;SDS011;19094;50.972;3.538;2023-02-11T10:53:35;44.38;;;20.33;;
32705;SDS011;19094;50.972;3.538;2023-02-11T10:56:01;47.03;;;22.83;;
32705;SDS011;19094;50.972;3.538;2023-02-11T10:58:29;42.78;;;20.38;;
32705;SDS011;19094;50.972;3.538;2023-02-11T11:00:59;40.38;;;19.88;;
32705;SDS011;19094;50.972;3.538;2023-02-11T11:03:25;41.63;;;17.70;;
32705;SDS011;19094;50.972;3.538;2023-02-11T11:05:54;41.17;;;19.92;;
32705;SDS011;19094;50.972;3.538;2023-02-11T11:08:23;38.88;;;19.63;;
32705;SDS011;19094;50.972;3.538;2023-02-11T11:11:13;38.05;;;18.13;;
32705;SDS011;19094;50.972;3.538;2023-02-11T11:13:41;44.17;;;18.80;;
32705;SDS011;19094;50.972;3.538;2023-02-11T11:16:23;42.88;;;18.48;;
32705;SDS011;19094;50.972;3.538;2023-02-11T11:18:51;39.47;;;17.80;;
32705;SDS011;19094;50.972;3.538;2023-02-11T11:21:43;40.20;;;18.48;;
32705;SDS011;19094;50.972;3.538;2023-02-11T11:24:20;38.17;;;17.98;;
32705;SDS011;19094;50.972;3.538;2023-02-11T11:26:48;36.90;;;18.75;;
32705;SDS011;19094;50.972;3.538;2023-02-11T11:32:01;37.60;;;17.02;;
32705;SDS011;19094;50.972;3.538;2023-02-11T11:34:42;33.88;;;15.85;;
32705;SDS011;19094;50.972;3.538;2023-02-11T11:37:21;34.80;;;17.42;;
32705;SDS011;19094;50.972;3.538;2023-02-11T11:42:31;33.22;;;16.60;;
32705;SDS011;19094;50.972;3.538;2023-02-11T11:44:59;31.50;;;15.80;;
32705;SDS011;19094;50.972;3.538;2023-02-11T11:47:30;35.53;;;17.92;;
32705;SDS011;19094;50.972;3.538;2023-02-11T11:57:53;33.55;;;16.65;;
32705;SDS011;19094;50.972;3.538;2023-02-11T12:00:43;36.60;;;16.55;;
32705;SDS011;19094;50.972;3.538;2023-02-11T12:03:18;39.42;;;16.38;;
32705;SDS011;19094;50.972;3.538;2023-02-11T12:06:49;32.20;;;16.05;;
32705;SDS011;19094;50.972;3.538;2023-02-11T12:08:55;34.75;;;15.95;;
32705;SDS011;19094;50.972;3.538;2023-02-11T12:28:49;39.20;;;18.63;;
32705;SDS011;19094;50.972;3.538;2023-02-11T12:34:13;38.95;;;17.92;;
32705;SDS011;19094;50.972;3.538;2023-02-11T12:39:54;36.92;;;18.38;;
32705;SDS011;19094;50.972;3.538;2023-02-11T12:56:35;42.88;;;18.95;;
32705;SDS011;19094;50.972;3.538;2023-02-11T12:59:03;43.33;;;20.00;;
32705;SDS011;19094;50.972;3.538;2023-02-11T13:01:35;40.22;;;19.92;;
32705;SDS011;19094;50.972;3.538;2023-02-11T13:04:05;39.38;;;18.80;;
32705;SDS011;19094;50.972;3.538;2023-02-11T13:06:39;45.70;;;22.23;;
32705;SDS011;19094;50.972;3.538;2023-02-11T13:09:55;39.30;;;21.08;;
32705;SDS011;19094;50.972;3.538;2023-02-11T13:12:01;40.45;;;19.63;;
32705;SDS011;19094;50.972;3.538;2023-02-11T13:14:47;44.40;;;20.23;;
32705;SDS011;19094;50.972;3.538;2023-02-11T13:17:19;42.50;;;19.67;;
32705;SDS011;19094;50.972;3.538;2023-02-11T13:19:52;47.83;;;20.63;;
32705;SDS011;19094;50.972;3.538;2023-02-11T13:22:27;43.80;;;20.95;;
32705;SDS011;19094;50.972;3.538;2023-02-11T13:25:05;46.22;;;21.10;;
32705;SDS011;19094;50.972;3.538;2023-02-11T13:35:35;43.58;;;21.50;;
32705;SDS011;19094;50.972;3.538;2023-02-11T13:41:00;42.95;;;20.50;;
32705;SDS011;19094;50.972;3.538;2023-02-11T13:43:28;46.42;;;21.58;;
32705;SDS011;19094;50.972;3.538;2023-02-11T13:46:00;42.78;;;21.73;;
32705;SDS011;19094;50.972;3.538;2023-02-11T13:48:30;43.95;;;20.40;;
32705;SDS011;19094;50.972;3.538;2023-02-11T13:50:59;53.78;;;20.90;;
32705;SDS011;19094;50.972;3.538;2023-02-11T13:53:28;51.05;;;19.60;;
32705;SDS011;19094;50.972;3.538;2023-02-11T13:56:05;44.55;;;20.02;;
32705;SDS011;19094;50.972;3.538;2023-02-11T13:58:33;40.42;;;20.50;;
32705;SDS011;19094;50.972;3.538;2023-02-11T14:01:03;47.00;;;21.70;;
32705;SDS011;19094;50.972;3.538;2023-02-11T14:03:37;44.13;;;22.55;;
32705;SDS011;19094;50.972;3.538;2023-02-11T14:06:23;41.58;;;20.30;;
32705;SDS011;19094;50.972;3.538;2023-02-11T14:11:51;43.85;;;20.73;;
32705;SDS011;19094;50.972;3.538;2023-02-11T14:14:26;46.92;;;20.52;;
32705;SDS011;19094;50.972;3.538;2023-02-11T14:19:32;49.58;;;21.50;;
32705;SDS011;19094;50.972;3.538;2023-02-11T14:24:51;37.92;;;19.52;;
32705;SDS011;19094;50.972;3.538;2023-02-11T14:27:26;46.20;;;21.02;;
32705;SDS011;19094;50.972;3.538;2023-02-11T14:41:03;42.00;;;20.25;;
32705;SDS011;19094;50.972;3.538;2023-02-11T14:43:40;40.78;;;19.95;;
32705;SDS011;19094;50.972;3.538;2023-02-11T14:46:16;41.70;;;21.00;;
32705;SDS011;19094;50.972;3.538;2023-02-11T14:48:47;43.83;;;22.27;;
32705;SDS011;19094;50.972;3.538;2023-02-11T14:51:23;43.47;;;21.02;;
32705;SDS011;19094;50.972;3.538;2023-02-11T14:53:53;42.92;;;21.67;;
32705;SDS011;19094;50.972;3.538;2023-02-11T14:56:25;46.05;;;22.13;;
32705;SDS011;19094;50.972;3.538;2023-02-11T14:58:55;42.58;;;20.98;;
32705;SDS011;19094;50.972;3.538;2023-02-11T15:04:02;39.50;;;20.55;;
32705;SDS011;19094;50.972;3.538;2023-02-11T15:06:30;41.25;;;22.13;;
32705;SDS011;19094;50.972;3.538;2023-02-11T15:09:13;43.22;;;20.92;;
32705;SDS011;19094;50.972;3.538;2023-02-11T15:11:53;41.75;;;21.52;;
32705;SDS011;19094;50.972;3.538;2023-02-11T15:14:25;38.80;;;20.52;;
32705;SDS011;19094;50.972;3.538;2023-02-11T15:16:55;42.08;;;20.48;;
32705;SDS011;19094;50.972;3.538;2023-02-11T15:21:55;45.72;;;21.58;;
32705;SDS011;19094;50.972;3.538;2023-02-11T15:26:58;39.30;;;20.20;;
32705;SDS011;19094;50.972;3.538;2023-02-11T15:29:33;44.08;;;20.25;;
32705;SDS011;19094;50.972;3.538;2023-02-11T15:34:32;42.47;;;20.60;;
32705;SDS011;19094;50.972;3.538;2023-02-11T15:36:58;64.80;;;30.90;;
32705;SDS011;19094;50.972;3.538;2023-02-11T15:39:35;44.88;;;22.88;;
32705;SDS011;19094;50.972;3.538;2023-02-11T15:45:07;44.08;;;22.08;;
32705;SDS011;19094;50.972;3.538;2023-02-11T15:47:33;42.07;;;22.13;;
32705;SDS011;19094;50.972;3.538;2023-02-11T15:49:59;47.60;;;21.38;;
32705;SDS011;19094;50.972;3.538;2023-02-11T15:52:26;42.92;;;21.45;;
32705;SDS011;19094;50.972;3.538;2023-02-11T15:54:53;40.67;;;20.65;;
32705;SDS011;19094;50.972;3.538;2023-02-11T15:57:23;43.88;;;21.80;;
32705;SDS011;19094;50.972;3.538;2023-02-11T15:59:49;46.65;;;22.35;;
32705;SDS011;19094;50.972;3.538;2023-02-11T16:02:19;45.60;;;22.33;;
32705;SDS011;19094;50.972;3.538;2023-02-11T16:05:02;40.08;;;19.92;;
32705;SDS011;19094;50.972;3.538;2023-02-11T16:07:40;41.00;;;19.35;;
32705;SDS011;19094;50.972;3.538;2023-02-11T16:10:22;40.70;;;20.40;;
32705;SDS011;19094;50.972;3.538;2023-02-11T16:15:29;45.03;;;21.48;;
32705;SDS011;19094;50.972;3.538;2023-02-11T16:20:52;46.80;;;21.13;;
32705;SDS011;19094;50.972;3.538;2023-02-11T16:23:22;44.50;;;22.48;;
32705;SDS011;19094;50.972;3.538;2023-02-11T16:26:29;44.38;;;21.58;;
32705;SDS011;19094;50.972;3.538;2023-02-11T16:31:40;42.45;;;21.33;;
32705;SDS011;19094;50.972;3.538;2023-02-11T16:34:24;46.42;;;22.08;;
32705;SDS011;19094;50.972;3.538;2023-02-11T16:36:50;46.40;;;21.85;;
32705;SDS011;19094;50.972;3.538;2023-02-11T16:39:17;42.45;;;22.02;;
32705;SDS011;19094;50.972;3.538;2023-02-11T16:41:47;51.72;;;22.55;;
32705;SDS011;19094;50.972;3.538;2023-02-11T16:44:15;43.53;;;20.63;;
32705;SDS011;19094;50.972;3.538;2023-02-11T16:46:41;38.13;;;19.38;;
32705;SDS011;19094;50.972;3.538;2023-02-11T16:49:08;35.97;;;17.77;;
32705;SDS011;19094;50.972;3.538;2023-02-11T16:51:37;38.88;;;20.00;;
32705;SDS011;19094;50.972;3.538;2023-02-11T16:54:04;41.58;;;21.50;;
32705;SDS011;19094;50.972;3.538;2023-02-11T16:56:30;38.67;;;20.73;;
32705;SDS011;19094;50.972;3.538;2023-02-11T16:58:55;35.72;;;19.55;;
32705;SDS011;19094;50.972;3.538;2023-02-11T17:01:21;46.55;;;21.42;;
32705;SDS011;19094;50.972;3.538;2023-02-11T17:03:47;40.88;;;20.58;;
32705;SDS011;19094;50.972;3.538;2023-02-11T17:06:13;49.58;;;21.83;;
32705;SDS011;19094;50.972;3.538;2023-02-11T17:08:39;41.20;;;20.27;;
32705;SDS011;19094;50.972;3.538;2023-02-11T17:11:05;41.33;;;20.63;;
32705;SDS011;19094;50.972;3.538;2023-02-11T17:13:31;53.25;;;23.20;;
32705;SDS011;19094;50.972;3.538;2023-02-11T17:15:57;46.83;;;22.20;;